createdAt,value
2023-02-20T00:02:15.427Z,5.63
2023-02-20T00:04:43.528Z,5.17
2023-02-20T00:07:11.583Z,5.67
2023-02-20T00:09:39.989Z,5.87
2023-02-20T00:12:08.198Z,6.60
2023-02-20T00:14:36.305Z,7.27
2023-02-20T00:17:05.722Z,7.37
2023-02-20T00:19:33.819Z,7.20
2023-02-20T00:22:02.198Z,7.60
2023-02-20T00:24:30.306Z,7.77
2023-02-20T00:26:58.407Z,8.80
2023-02-20T00:29:26.445Z,10.00
2023-02-20T00:31:54.662Z,7.03
2023-02-20T00:34:24.515Z,8.07
2023-02-20T00:36:52.914Z,9.20
2023-02-20T00:39:20.993Z,8.70
2023-02-20T00:41:49.028Z,8.03
2023-02-20T00:44:17.275Z,7.83
2023-02-20T00:46:45.574Z,9.57
2023-02-20T00:49:14.276Z,8.87
2023-02-20T00:51:50.275Z,10.40
2023-02-20T00:54:18.341Z,8.13
2023-02-20T00:56:46.444Z,8.43
2023-02-20T00:59:14.587Z,11.13
2023-02-20T01:01:42.705Z,11.00
2023-02-20T01:04:12.289Z,11.30
2023-02-20T01:06:43.268Z,10.27
2023-02-20T01:09:14.665Z,12.37
2023-02-20T01:11:43.378Z,11.57
2023-02-20T01:14:11.621Z,12.23
2023-02-20T01:16:45.548Z,11.73
2023-02-20T01:19:13.704Z,11.33
2023-02-20T01:21:41.999Z,11.17
2023-02-20T01:24:12.271Z,10.00
2023-02-20T01:26:43.612Z,10.60
2023-02-20T01:29:11.963Z,12.23
2023-02-20T01:31:40.261Z,10.87
2023-02-20T01:34:10.439Z,9.40
2023-02-20T01:36:38.630Z,11.30
2023-02-20T01:39:06.705Z,10.00
2023-02-20T01:41:34.801Z,9.80
2023-02-20T01:44:04.597Z,11.00
2023-02-20T01:46:47.587Z,9.03
2023-02-20T01:49:16.637Z,9.70
2023-02-20T01:51:46.070Z,8.77
2023-02-20T01:54:15.977Z,13.00
2023-02-20T01:56:44.066Z,11.47
2023-02-20T01:59:13.824Z,13.03
2023-02-20T02:01:41.947Z,16.07
2023-02-20T02:04:10.696Z,15.30
2023-02-20T02:06:40.995Z,15.43
2023-02-20T02:09:10.813Z,13.30
2023-02-20T02:11:39.178Z,15.17
2023-02-20T02:14:07.290Z,16.80
2023-02-20T02:16:38.756Z,14.40
2023-02-20T02:19:08.753Z,17.90
2023-02-20T02:22:05.677Z,14.27
2023-02-20T02:24:59.220Z,17.00
2023-02-20T02:27:56.164Z,15.40
2023-02-20T02:30:48.768Z,12.70
2023-02-20T02:34:01.407Z,16.13
2023-02-20T02:36:55.421Z,15.67
2023-02-20T02:39:26.733Z,11.97
2023-02-20T02:41:57.590Z,14.40
2023-02-20T02:44:29.914Z,13.47
2023-02-20T02:46:58.617Z,13.40
2023-02-20T02:49:29.612Z,12.93
2023-02-20T02:51:59.685Z,13.17
2023-02-20T02:54:28.565Z,14.37
2023-02-20T02:57:21.045Z,12.97
2023-02-20T02:59:49.208Z,14.27
2023-02-20T03:02:17.357Z,15.37
2023-02-20T03:04:46.060Z,14.27
2023-02-20T03:07:16.588Z,12.63
2023-02-20T03:09:46.705Z,13.67
2023-02-20T03:12:14.825Z,14.60
2023-02-20T03:15:02.002Z,14.50
2023-02-20T03:17:31.831Z,17.97
2023-02-20T03:20:01.350Z,12.30
2023-02-20T03:22:34.801Z,15.37
2023-02-20T03:25:04.149Z,15.63
2023-02-20T03:27:39.059Z,13.03
2023-02-20T03:30:13.477Z,15.60
2023-02-20T03:32:59.289Z,14.10
2023-02-20T03:35:44.791Z,12.30
2023-02-20T03:38:32.097Z,13.23
2023-02-20T03:41:17.640Z,11.03
2023-02-20T03:43:46.830Z,12.60
2023-02-20T03:46:22.862Z,14.97
2023-02-20T03:48:53.570Z,16.43
2023-02-20T03:51:39.243Z,13.53
2023-02-20T03:54:15.222Z,15.00
2023-02-20T03:56:44.408Z,13.27
2023-02-20T03:59:16.250Z,13.87
2023-02-20T04:01:46.113Z,12.57
2023-02-20T04:04:17.788Z,11.43
2023-02-20T04:06:48.408Z,11.60
2023-02-20T04:09:19.102Z,13.67
2023-02-20T04:11:48.875Z,13.70
2023-02-20T04:14:17.424Z,14.00
2023-02-20T04:16:48.818Z,10.97
2023-02-20T04:19:17.011Z,11.87
2023-02-20T04:21:47.479Z,15.77
2023-02-20T04:24:19.600Z,12.83
2023-02-20T04:26:49.100Z,13.77
2023-02-20T04:29:17.575Z,17.27
2023-02-20T04:31:45.890Z,14.13
2023-02-20T04:34:15.180Z,14.67
2023-02-20T04:36:43.371Z,13.10
2023-02-20T04:39:12.016Z,14.57
2023-02-20T04:41:41.517Z,15.43
2023-02-20T04:44:26.808Z,13.63
2023-02-20T04:46:56.923Z,15.73
2023-02-20T04:49:25.708Z,14.10
2023-02-20T04:51:56.513Z,14.80
2023-02-20T04:54:25.034Z,13.40
2023-02-20T04:56:54.924Z,19.20
2023-02-20T04:59:23.268Z,13.53
2023-02-20T05:01:52.228Z,15.03
2023-02-20T05:04:20.463Z,13.63
2023-02-20T05:06:50.121Z,14.67
2023-02-20T05:09:18.622Z,14.13
2023-02-20T05:11:46.732Z,14.67
2023-02-20T05:14:16.293Z,16.43
2023-02-20T05:16:45.663Z,18.30
2023-02-20T05:19:14.485Z,15.33
2023-02-20T05:22:00.684Z,15.70
2023-02-20T05:24:29.850Z,16.23
2023-02-20T05:26:58.287Z,14.17
2023-02-20T05:29:27.794Z,16.30
2023-02-20T05:31:56.006Z,19.73
2023-02-20T05:34:25.861Z,16.03
2023-02-20T05:36:54.550Z,15.90
2023-02-20T05:39:22.734Z,15.63
2023-02-20T05:41:50.800Z,13.90
2023-02-20T05:44:18.847Z,16.90
2023-02-20T05:46:48.417Z,18.20
2023-02-20T05:49:18.148Z,17.27
2023-02-20T05:51:46.192Z,16.33
2023-02-20T05:54:14.375Z,16.03
2023-02-20T05:56:43.021Z,17.70
2023-02-20T05:59:11.252Z,19.97
2023-02-20T06:01:39.387Z,18.23
2023-02-20T06:04:10.957Z,20.70
2023-02-20T06:06:40.056Z,21.20
2023-02-20T06:09:08.683Z,17.33
2023-02-20T06:11:37.525Z,19.63
2023-02-20T06:14:05.631Z,18.17
2023-02-20T06:16:34.238Z,16.93
2023-02-20T06:19:02.428Z,16.40
2023-02-20T06:21:32.947Z,18.80
2023-02-20T06:24:01.089Z,17.33
2023-02-20T06:26:29.180Z,16.77
2023-02-20T06:28:58.347Z,16.73
2023-02-20T06:31:28.310Z,18.03
2023-02-20T06:33:56.472Z,19.43
2023-02-20T06:36:25.880Z,15.97
2023-02-20T06:38:57.960Z,14.57
2023-02-20T06:41:26.206Z,19.57
2023-02-20T06:43:54.494Z,16.60
2023-02-20T06:46:23.896Z,17.60
2023-02-20T06:48:54.591Z,16.30
2023-02-20T06:51:24.147Z,15.80
2023-02-20T06:53:52.365Z,17.13
2023-02-20T06:56:23.168Z,19.37
2023-02-20T06:58:52.133Z,15.30
2023-02-20T07:01:20.510Z,15.50
2023-02-20T07:03:50.988Z,15.90
2023-02-20T07:06:19.171Z,16.00
2023-02-20T07:08:47.272Z,12.07
2023-02-20T07:11:15.412Z,12.80
2023-02-20T07:13:45.298Z,14.03
2023-02-20T07:16:13.778Z,12.57
2023-02-20T07:18:42.070Z,11.50
2023-02-20T07:21:10.470Z,12.40
2023-02-20T07:23:38.678Z,11.03
2023-02-20T07:26:07.042Z,13.27
2023-02-20T07:28:36.431Z,13.07
2023-02-20T07:31:06.214Z,10.83
2023-02-20T07:33:34.303Z,10.93
2023-02-20T07:36:02.376Z,12.77
2023-02-20T07:38:30.413Z,10.30
2023-02-20T07:40:58.797Z,12.83
2023-02-20T07:43:26.867Z,13.83
2023-02-20T07:45:54.972Z,10.27
2023-02-20T07:48:24.500Z,10.40
2023-02-20T07:50:53.277Z,12.10
2023-02-20T07:53:21.814Z,12.57
2023-02-20T07:55:50.220Z,12.37
2023-02-20T07:58:18.353Z,14.90
2023-02-20T08:00:46.425Z,17.60
2023-02-20T08:03:14.518Z,14.10
2023-02-20T08:05:49.413Z,12.57
2023-02-20T08:08:18.026Z,13.53
2023-02-20T08:10:47.048Z,12.83
2023-02-20T08:13:16.194Z,12.80
2023-02-20T08:15:44.818Z,12.17
2023-02-20T08:18:23.205Z,11.53
2023-02-20T08:20:53.489Z,14.33
2023-02-20T08:23:22.892Z,12.63
2023-02-20T08:25:51.964Z,13.27
2023-02-20T08:28:20.267Z,13.73
2023-02-20T08:30:48.318Z,9.37
2023-02-20T08:33:16.433Z,13.13
2023-02-20T08:35:44.577Z,10.87
2023-02-20T08:38:26.480Z,9.43
2023-02-20T08:40:54.505Z,8.67
2023-02-20T08:43:22.655Z,8.57
2023-02-20T08:45:50.756Z,10.30
2023-02-20T08:48:19.431Z,10.83
2023-02-20T08:50:48.153Z,8.33
2023-02-20T08:53:16.386Z,10.67
2023-02-20T08:55:45.920Z,9.07
2023-02-20T08:58:14.006Z,10.63
2023-02-20T09:00:42.144Z,8.40
2023-02-20T09:03:10.205Z,7.47
2023-02-20T09:05:39.402Z,9.17
2023-02-20T09:08:07.614Z,9.67
2023-02-20T09:10:35.676Z,12.90
2023-02-20T09:13:05.332Z,7.77
2023-02-20T09:15:38.684Z,7.37
2023-02-20T09:18:09.520Z,7.43
2023-02-20T09:20:38.153Z,8.17
2023-02-20T09:23:06.224Z,6.40
2023-02-20T09:25:34.417Z,6.23
2023-02-20T09:28:02.471Z,5.13
2023-02-20T09:30:32.274Z,6.93
2023-02-20T09:33:00.375Z,5.57
2023-02-20T09:35:29.462Z,6.03
2023-02-20T09:37:57.606Z,8.33
2023-02-20T09:40:26.715Z,4.77
2023-02-20T09:43:15.969Z,4.70
2023-02-20T09:45:49.400Z,5.53
2023-02-20T09:48:24.988Z,6.73
2023-02-20T09:50:54.780Z,5.43
2023-02-20T09:53:25.237Z,7.37
2023-02-20T09:55:53.675Z,4.40
2023-02-20T09:58:24.636Z,6.57
2023-02-20T10:00:54.107Z,6.13
2023-02-20T10:03:25.836Z,4.37
2023-02-20T10:05:53.930Z,6.23
2023-02-20T10:08:23.617Z,5.93
2023-02-20T10:10:52.128Z,5.80
2023-02-20T10:13:31.974Z,3.90
2023-02-20T10:16:04.734Z,3.43
2023-02-20T10:18:36.250Z,6.13
2023-02-20T10:21:15.389Z,6.60
2023-02-20T10:23:49.357Z,5.77
2023-02-20T10:26:26.917Z,4.83
2023-02-20T10:28:55.399Z,7.23
2023-02-20T10:31:30.650Z,4.80
2023-02-20T10:34:00.744Z,6.10
2023-02-20T10:36:30.563Z,4.77
2023-02-20T10:39:02.178Z,4.77
2023-02-20T10:41:31.839Z,3.80
2023-02-20T10:44:02.458Z,6.07
2023-02-20T10:46:47.780Z,5.67
2023-02-20T10:49:18.865Z,4.50
2023-02-20T10:51:47.533Z,5.57
2023-02-20T10:54:17.971Z,4.37
2023-02-20T10:56:48.301Z,4.00
2023-02-20T10:59:19.307Z,4.50
2023-02-20T11:01:56.968Z,3.17
2023-02-20T11:04:26.198Z,4.27
2023-02-20T11:06:56.398Z,5.23
2023-02-20T11:09:25.560Z,4.37
2023-02-20T11:11:54.212Z,3.47
2023-02-20T11:14:38.972Z,4.40
2023-02-20T11:17:12.558Z,6.53
2023-02-20T11:19:42.926Z,3.53
2023-02-20T11:22:11.390Z,2.30
2023-02-20T11:24:39.934Z,3.33
2023-02-20T11:27:10.576Z,5.70
2023-02-20T11:29:41.672Z,3.87
2023-02-20T11:32:19.457Z,4.00
2023-02-20T11:34:47.854Z,2.93
2023-02-20T11:37:15.925Z,5.13
2023-02-20T11:39:47.452Z,6.07
2023-02-20T11:42:17.441Z,5.70
2023-02-20T11:44:45.671Z,3.07
2023-02-20T11:47:24.629Z,6.60
2023-02-20T11:50:19.245Z,6.30
2023-02-20T11:52:59.445Z,3.63
2023-02-20T11:55:29.599Z,3.30
2023-02-20T11:57:57.817Z,2.67
2023-02-20T12:00:26.436Z,4.70
2023-02-20T12:02:57.412Z,3.73
2023-02-20T12:05:38.973Z,4.40
2023-02-20T12:08:35.249Z,2.90
2023-02-20T12:11:04.570Z,4.73
2023-02-20T12:13:32.639Z,4.50
2023-02-20T12:16:03.847Z,4.57
2023-02-20T12:18:42.256Z,4.93
2023-02-20T12:21:15.554Z,2.93
2023-02-20T12:23:49.437Z,6.27
2023-02-20T12:26:26.406Z,5.27
2023-02-20T12:29:00.644Z,3.37
2023-02-20T12:31:37.285Z,3.63
2023-02-20T12:34:12.611Z,4.17
2023-02-20T12:36:41.366Z,3.87
2023-02-20T12:39:17.040Z,3.23
2023-02-20T12:41:51.173Z,3.23
2023-02-20T12:44:31.403Z,6.23
2023-02-20T12:47:03.893Z,3.60
2023-02-20T12:49:49.187Z,2.63
2023-02-20T12:52:36.002Z,3.73
2023-02-20T12:55:10.178Z,2.13
2023-02-20T12:57:43.579Z,3.93
2023-02-20T13:00:22.395Z,3.73
2023-02-20T13:02:51.490Z,3.87
2023-02-20T13:05:21.709Z,3.27
2023-02-20T13:07:52.858Z,2.43
2023-02-20T13:10:23.437Z,2.93
2023-02-20T13:12:51.573Z,5.80
2023-02-20T13:15:38.425Z,3.33
2023-02-20T13:18:10.177Z,3.63
2023-02-20T13:20:44.516Z,3.77
2023-02-20T13:23:30.453Z,3.20
2023-02-20T13:25:58.641Z,2.10
2023-02-20T13:28:43.042Z,3.33
2023-02-20T13:31:15.855Z,4.80
2023-02-20T13:33:44.621Z,2.33
2023-02-20T13:36:42.770Z,4.37
2023-02-20T13:39:42.856Z,3.57
2023-02-20T13:42:33.232Z,2.67
2023-02-20T13:45:02.533Z,2.33
2023-02-20T13:47:40.838Z,4.23
2023-02-20T13:50:32.932Z,2.77
2023-02-20T13:53:06.338Z,5.17
2023-02-20T13:55:34.587Z,2.50
2023-02-20T13:58:22.577Z,4.23
2023-02-20T14:00:52.474Z,4.93
2023-02-20T14:03:23.464Z,8.40
2023-02-20T14:06:13.227Z,3.70
2023-02-20T14:08:43.806Z,3.83
2023-02-20T14:11:12.621Z,4.20
2023-02-20T14:13:42.871Z,2.20
2023-02-20T14:16:28.618Z,3.20
2023-02-20T14:18:58.770Z,4.63
2023-02-20T14:21:26.824Z,3.47
2023-02-20T14:23:56.309Z,3.97
2023-02-20T14:26:25.424Z,4.77
2023-02-20T14:28:56.596Z,3.63
2023-02-20T14:31:25.756Z,2.83
2023-02-20T14:33:56.986Z,5.23
2023-02-20T14:37:03.795Z,5.33
2023-02-20T14:39:40.393Z,4.10
2023-02-20T14:42:15.419Z,3.47
2023-02-20T14:44:43.564Z,4.87
2023-02-20T14:47:13.202Z,3.87
2023-02-20T14:49:41.243Z,5.57
2023-02-20T14:52:14.775Z,3.10
2023-02-20T14:54:44.879Z,3.33
2023-02-20T14:57:14.439Z,4.20
2023-02-20T14:59:43.086Z,4.10
2023-02-20T15:02:31.286Z,4.33
2023-02-20T15:05:03.953Z,3.47
2023-02-20T15:07:32.088Z,4.73
2023-02-20T15:10:05.050Z,3.23
2023-02-20T15:12:35.603Z,3.53
2023-02-20T15:15:05.619Z,5.57
2023-02-20T15:17:33.997Z,2.87
2023-02-20T15:20:02.369Z,2.80
2023-02-20T15:22:32.620Z,4.93
2023-02-20T15:25:32.115Z,4.23
2023-02-20T15:28:08.119Z,4.57
2023-02-20T15:30:36.363Z,3.87
2023-02-20T15:33:04.537Z,3.00
2023-02-20T15:35:33.081Z,3.50
2023-02-20T15:38:02.640Z,3.70
2023-02-20T15:40:33.149Z,3.00
2023-02-20T15:43:04.756Z,3.90
2023-02-20T15:45:37.759Z,3.47
2023-02-20T15:48:06.250Z,2.20
2023-02-20T15:50:34.359Z,4.80
2023-02-20T15:53:02.970Z,4.13
2023-02-20T15:55:34.485Z,5.17
2023-02-20T15:58:04.694Z,3.03
2023-02-20T16:00:35.124Z,4.57
2023-02-20T16:03:03.589Z,5.33
2023-02-20T16:05:32.024Z,3.47
2023-02-20T16:08:00.290Z,5.10
2023-02-20T16:10:28.451Z,3.77
2023-02-20T16:12:58.491Z,3.27
2023-02-20T16:15:26.680Z,3.93
2023-02-20T16:17:55.050Z,4.67
2023-02-20T16:20:24.427Z,3.37
2023-02-20T16:22:52.806Z,3.60
2023-02-20T16:25:21.881Z,2.40
2023-02-20T16:27:52.570Z,3.17
2023-02-20T16:30:32.702Z,3.77
2023-02-20T16:33:02.416Z,5.77
2023-02-20T16:35:30.612Z,5.47
2023-02-20T16:37:58.789Z,3.40
2023-02-20T16:40:26.922Z,5.40
2023-02-20T16:42:55.028Z,3.87
2023-02-20T16:45:24.786Z,7.50
2023-02-20T16:47:53.570Z,3.47
2023-02-20T16:50:23.763Z,3.37
2023-02-20T16:52:52.128Z,3.87
2023-02-20T16:55:21.165Z,2.87
2023-02-20T16:57:49.263Z,3.57
2023-02-20T17:00:18.652Z,4.63
2023-02-20T17:02:48.237Z,3.33
2023-02-20T17:05:16.415Z,3.07
2023-02-20T17:07:44.559Z,4.90
2023-02-20T17:10:12.642Z,4.97
2023-02-20T17:12:41.103Z,4.17
2023-02-20T17:15:10.027Z,3.60
2023-02-20T17:17:38.680Z,4.57
2023-02-20T17:20:11.073Z,4.23
2023-02-20T17:22:39.678Z,3.63
2023-02-20T17:25:08.153Z,4.53
2023-02-20T17:27:36.276Z,5.33
2023-02-20T17:30:05.050Z,9.10
2023-02-20T17:32:33.894Z,4.80
2023-02-20T17:35:02.108Z,4.97
2023-02-20T17:37:34.316Z,4.83
2023-02-20T17:40:02.920Z,5.10
2023-02-20T17:42:31.684Z,6.43
2023-02-20T17:45:00.296Z,5.03
2023-02-20T17:47:28.443Z,4.80
2023-02-20T17:49:56.853Z,3.10
2023-02-20T17:52:24.974Z,7.57
2023-02-20T17:54:56.149Z,7.60
2023-02-20T17:57:24.432Z,4.57
2023-02-20T17:59:52.482Z,6.40
2023-02-20T18:02:20.577Z,5.83
2023-02-20T18:04:48.731Z,4.60
2023-02-20T18:07:17.935Z,4.33
2023-02-20T18:09:46.342Z,7.87
2023-02-20T18:12:15.802Z,4.13
2023-02-20T18:14:45.032Z,5.10
2023-02-20T18:17:13.156Z,3.80
2023-02-20T18:19:41.282Z,5.67
2023-02-20T18:22:09.994Z,6.77
2023-02-20T18:24:38.165Z,4.17
2023-02-20T18:27:06.496Z,7.00
2023-02-20T18:29:36.063Z,3.27
2023-02-20T18:32:04.230Z,5.33
2023-02-20T18:34:32.462Z,6.23
2023-02-20T18:37:00.840Z,7.57
2023-02-20T18:39:29.016Z,3.70
2023-02-20T18:41:57.945Z,6.63
2023-02-20T18:44:26.100Z,4.60
2023-02-20T18:46:55.779Z,5.23
2023-02-20T18:49:24.232Z,6.83
2023-02-20T18:51:52.311Z,5.57
2023-02-20T18:54:22.321Z,5.00
2023-02-20T18:56:51.434Z,9.00
2023-02-20T18:59:19.613Z,6.37
2023-02-20T19:01:47.774Z,5.20
2023-02-20T19:04:17.929Z,7.83
2023-02-20T19:06:46.973Z,7.53
2023-02-20T19:09:16.146Z,3.27
2023-02-20T19:11:44.316Z,6.43
2023-02-20T19:14:12.457Z,5.93
2023-02-20T19:16:40.911Z,6.70
2023-02-20T19:19:09.110Z,7.07
2023-02-20T19:21:38.618Z,3.67
2023-02-20T19:24:08.990Z,4.73
2023-02-20T19:26:37.150Z,5.80
2023-02-20T19:29:05.270Z,4.83
2023-02-20T19:31:33.796Z,5.40
2023-02-20T19:34:01.934Z,4.20
2023-02-20T19:36:30.030Z,3.63
2023-02-20T19:38:59.536Z,6.07
2023-02-20T19:41:27.650Z,5.37
2023-02-20T19:43:55.997Z,4.90
2023-02-20T19:46:24.862Z,8.53
2023-02-20T19:48:52.956Z,6.53
2023-02-20T19:51:21.427Z,4.67
2023-02-20T19:53:49.597Z,4.60
2023-02-20T19:56:19.098Z,8.67
2023-02-20T19:58:47.519Z,8.00
2023-02-20T20:01:16.266Z,7.47
2023-02-20T20:03:44.472Z,6.37
2023-02-20T20:06:13.029Z,7.97
2023-02-20T20:09:01.771Z,6.77
2023-02-20T20:11:31.046Z,7.10
2023-02-20T20:13:59.266Z,5.80
2023-02-20T20:16:27.655Z,6.03
2023-02-20T20:18:56.053Z,4.00
2023-02-20T20:21:24.197Z,6.80
2023-02-20T20:23:54.037Z,7.27
2023-02-20T20:26:25.791Z,5.90
2023-02-20T20:28:55.608Z,5.37
2023-02-20T20:31:24.484Z,6.70
2023-02-20T20:33:52.830Z,7.20
2023-02-20T20:36:20.929Z,6.60
2023-02-20T20:38:49.614Z,5.30
2023-02-20T20:41:17.691Z,7.30
2023-02-20T20:43:46.005Z,6.40
2023-02-20T20:46:15.686Z,6.67
2023-02-20T20:48:43.826Z,5.83
2023-02-20T20:51:12.914Z,7.63
2023-02-20T20:53:41.308Z,6.10
2023-02-20T20:56:10.083Z,5.63
2023-02-20T20:58:38.299Z,7.57
2023-02-20T21:01:06.603Z,5.80
2023-02-20T21:03:36.324Z,7.00
2023-02-20T21:06:04.433Z,6.13
2023-02-20T21:08:33.815Z,5.03
2023-02-20T21:11:01.998Z,6.40
2023-02-20T21:13:30.116Z,5.93
2023-02-20T21:15:58.213Z,5.67
2023-02-20T21:18:26.674Z,5.60
2023-02-20T21:20:56.151Z,7.50
2023-02-20T21:23:24.297Z,5.93
2023-02-20T21:25:52.375Z,7.10
2023-02-20T21:28:20.461Z,6.80
2023-02-20T21:30:48.885Z,5.20
2023-02-20T21:33:17.025Z,6.93
2023-02-20T21:35:45.086Z,5.73
2023-02-20T21:38:14.551Z,7.40
2023-02-20T21:40:42.735Z,7.43
2023-02-20T21:43:28.998Z,5.07
2023-02-20T21:45:57.263Z,5.20
2023-02-20T21:48:25.640Z,5.63
2023-02-20T21:50:53.840Z,5.83
2023-02-20T21:53:23.455Z,4.30
2023-02-20T21:55:51.776Z,5.20
2023-02-20T21:58:25.168Z,9.03
2023-02-20T22:00:52.051Z,7.03
2023-02-20T22:03:18.992Z,6.63
2023-02-20T22:05:45.834Z,4.93
2023-02-20T22:08:32.580Z,5.80
2023-02-20T22:11:20.513Z,3.77
2023-02-20T22:14:05.844Z,4.33
2023-02-20T22:16:51.338Z,4.47
2023-02-20T22:19:36.606Z,8.17
2023-02-20T22:22:21.901Z,6.13
2023-02-20T22:25:07.716Z,6.93
2023-02-20T22:27:54.631Z,3.40
2023-02-20T22:30:39.833Z,5.67
2023-02-20T22:33:25.768Z,6.57
2023-02-20T22:36:12.862Z,5.37
2023-02-20T22:38:58.355Z,4.20
2023-02-20T22:41:43.980Z,4.57
2023-02-20T22:44:30.807Z,6.13
2023-02-20T22:47:16.082Z,4.33
2023-02-20T22:50:01.691Z,7.80
2023-02-20T22:52:47.480Z,6.73
2023-02-20T22:55:33.078Z,7.90
2023-02-20T22:58:18.415Z,5.10
2023-02-20T23:01:05.644Z,4.90
2023-02-20T23:03:51.038Z,6.47
2023-02-20T23:06:37.577Z,5.43
2023-02-20T23:09:23.418Z,4.83
2023-02-20T23:12:08.757Z,4.20
2023-02-20T23:14:53.944Z,7.13
2023-02-20T23:17:41.340Z,4.23
2023-02-20T23:20:28.565Z,7.80
2023-02-20T23:23:14.305Z,6.67
2023-02-20T23:25:59.532Z,6.03
2023-02-20T23:28:44.731Z,4.47
2023-02-20T23:31:30.346Z,4.93
2023-02-20T23:34:17.233Z,8.67
2023-02-20T23:37:04.844Z,6.20
2023-02-20T23:39:50.080Z,6.73
2023-02-20T23:42:35.844Z,8.80
2023-02-20T23:45:22.180Z,6.60
2023-02-20T23:48:07.867Z,5.63
2023-02-20T23:50:54.860Z,8.17
2023-02-20T23:53:40.144Z,5.67
2023-02-20T23:56:26.162Z,8.10
2023-02-20T23:59:11.753Z,10.03
